Time;durP1;ratioP1;P1;durP2;ratioP2;P2;SDS_P1;SDS_P2;PMS_P1;PMS_P2;Temp;Humidity;BMP_temperature;BMP_pressure;BME280_temperature;BME280_humidity;BME280_pressure;Samples;Min_cycle;Max_cycle;Signal;HPM_P1;HPM_P2
2023/04/08 00:00:40;;;;;;;15.27;11.77;;;7.20;1.00;;;;;;5039475;28;20506;-55
2023/04/08 00:03:06;;;;;;;19.50;13.73;;;7.20;1.00;;;;;;5036512;28;20656;-54
2023/04/08 00:05:32;;;;;;;17.27;14.03;;;7.20;1.00;;;;;;5032876;28;20196;-53
2023/04/08 00:07:58;;;;;;;17.17;13.17;;;7.20;1.00;;;;;;5035457;28;20490;-54
2023/04/08 00:10:25;;;;;;;16.97;13.33;;;7.30;1.00;;;;;;5033568;28;20450;-53
2023/04/08 00:12:51;;;;;;;20.27;14.43;;;7.30;1.00;;;;;;5032367;28;20243;-55
2023/04/08 00:15:16;;;;;;;21.60;15.03;;;7.30;1.00;;;;;;5037157;28;20448;-54
2023/04/08 00:17:42;;;;;;;24.10;15.93;;;7.30;1.00;;;;;;5033876;28;20590;-54
2023/04/08 00:20:08;;;;;;;20.27;14.23;;;7.30;1.00;;;;;;5034963;28;20257;-54
2023/04/08 00:22:34;;;;;;;19.33;15.30;;;7.30;1.00;;;;;;5037840;28;20223;-54
2023/04/08 00:25:00;;;;;;;22.00;16.50;;;7.30;1.00;;;;;;5039307;28;20458;-54
2023/04/08 00:27:26;;;;;;;21.27;13.80;;;7.30;1.00;;;;;;5039216;28;20447;-56
2023/04/08 00:29:52;;;;;;;21.60;15.30;;;7.20;1.00;;;;;;5038551;28;20462;-54
2023/04/08 00:32:17;;;;;;;25.90;16.60;;;7.20;1.00;;;;;;5039562;28;20192;-53
2023/04/08 00:34:43;;;;;;;26.93;17.33;;;7.10;1.00;;;;;;5035414;28;20588;-53
2023/04/08 00:37:09;;;;;;;23.60;16.83;;;7.20;1.00;;;;;;5037306;28;20246;-53
2023/04/08 00:39:35;;;;;;;23.60;15.13;;;7.20;1.00;;;;;;5041009;28;20203;-55
2023/04/08 00:42:01;;;;;;;24.17;16.07;;;7.20;1.00;;;;;;5037392;28;21011;-53
2023/04/08 00:44:27;;;;;;;24.13;15.73;;;7.30;1.00;;;;;;5041192;28;20447;-53
2023/04/08 00:46:52;;;;;;;25.30;16.10;;;7.40;1.00;;;;;;5042949;28;20258;-53
2023/04/08 00:49:18;;;;;;;26.63;17.80;;;7.30;1.00;;;;;;5045482;28;20479;-53
2023/04/08 00:51:44;;;;;;;24.17;15.10;;;7.30;1.00;;;;;;5039670;28;20200;-54
2023/04/08 00:54:10;;;;;;;23.50;15.73;;;7.40;1.00;;;;;;5043172;28;20486;-55
2023/04/08 00:56:37;;;;;;;22.53;15.77;;;7.30;1.00;;;;;;5040346;28;20460;-54
2023/04/08 00:59:03;;;;;;;22.13;16.13;;;7.30;1.00;;;;;;5045442;28;20222;-54
2023/04/08 01:01:41;;;;;;;25.53;15.83;;;7.30;1.00;;;;;;5047381;28;20467;-55
2023/04/08 01:04:12;;;;;;;23.47;16.23;;;7.40;1.00;;;;;;5045581;28;20447;-54
2023/04/08 01:06:55;;;;;;;23.80;16.20;;;7.40;1.00;;;;;;5041825;28;20537;-54
2023/04/08 01:09:26;;;;;;;25.10;15.33;;;7.40;1.00;;;;;;5044034;28;20446;-55
2023/04/08 01:11:53;;;;;;;26.23;16.47;;;7.50;1.00;;;;;;5045789;28;20493;-56
2023/04/08 01:14:27;;;;;;;24.03;16.90;;;7.50;1.00;;;;;;5044867;28;20455;-53
2023/04/08 01:16:56;;;;;;;25.50;15.80;;;7.40;1.00;;;;;;5049831;28;20458;-54
2023/04/08 01:19:29;;;;;;;24.07;15.03;;;7.30;1.00;;;;;;5047738;28;20534;-55
2023/04/08 01:22:04;;;;;;;23.40;15.50;;;7.50;1.00;;;;;;5043042;28;20466;-56
2023/04/08 01:24:35;;;;;;;24.17;15.77;;;7.40;1.00;;;;;;5048375;28;20446;-53
2023/04/08 01:27:02;;;;;;;24.60;17.00;;;7.50;1.00;;;;;;5047057;28;20438;-53
2023/04/08 01:29:29;;;;;;;24.90;15.73;;;7.40;1.00;;;;;;5047017;28;20479;-54
2023/04/08 01:31:56;;;;;;;23.80;15.43;;;7.50;1.00;;;;;;5045218;28;20455;-53
2023/04/08 01:34:23;;;;;;;27.03;17.20;;;7.50;1.00;;;;;;5045171;28;21021;-54
2023/04/08 01:36:50;;;;;;;22.40;14.67;;;7.30;1.00;;;;;;5044857;28;20451;-54
2023/04/08 01:39:17;;;;;;;25.33;15.40;;;7.30;1.00;;;;;;5046183;28;20455;-53
2023/04/08 01:41:44;;;;;;;22.20;14.40;;;7.30;1.00;;;;;;5040364;28;20482;-55
2023/04/08 01:44:12;;;;;;;21.30;15.27;;;7.40;1.00;;;;;;5046907;28;20960;-55
2023/04/08 01:46:40;;;;;;;22.73;15.30;;;7.50;1.00;;;;;;5043786;28;20461;-54
2023/04/08 01:49:07;;;;;;;19.10;13.27;;;7.40;1.00;;;;;;5042020;28;20517;-56
2023/04/08 01:51:33;;;;;;;24.33;15.13;;;7.50;1.00;;;;;;5033665;28;20561;-53
2023/04/08 01:53:59;;;;;;;21.20;13.67;;;7.40;1.00;;;;;;5034101;28;20565;-55
2023/04/08 01:56:28;;;;;;;25.90;15.10;;;7.40;1.00;;;;;;5033453;28;20504;-53
2023/04/08 01:58:56;;;;;;;22.40;13.53;;;7.40;1.00;;;;;;5036329;28;20272;-51
2023/04/08 02:01:25;;;;;;;21.93;13.77;;;7.40;1.00;;;;;;5037561;28;20510;-54
2023/04/08 02:03:56;;;;;;;20.50;13.17;;;7.50;1.00;;;;;;5038516;28;20983;-54
2023/04/08 02:06:22;;;;;;;23.50;13.97;;;7.40;1.00;;;;;;5033338;28;20479;-55
2023/04/08 02:08:48;;;;;;;19.80;13.00;;;7.40;1.00;;;;;;5036001;28;20455;-54
2023/04/08 02:11:14;;;;;;;20.10;13.17;;;7.00;1.00;;;;;;5034868;28;20517;-53
2023/04/08 02:13:40;;;;;;;24.30;13.20;;;7.30;1.00;;;;;;5036564;28;20231;-54
2023/04/08 02:16:25;;;;;;;17.60;10.97;;;7.30;1.00;;;;;;5035868;28;20455;-55
2023/04/08 02:19:17;;;;;;;19.77;12.20;;;7.40;1.00;;;;;;5033885;28;20451;-54
2023/04/08 02:21:51;;;;;;;13.50;10.20;;;7.50;1.00;;;;;;5037794;28;20470;-54
2023/04/08 02:24:17;;;;;;;17.60;11.20;;;7.50;1.00;;;;;;5045264;28;20958;-54
2023/04/08 02:26:45;;;;;;;16.97;11.87;;;7.60;1.00;;;;;;5042809;28;20470;-55
2023/04/08 02:29:15;;;;;;;15.40;10.10;;;7.40;1.00;;;;;;5042018;28;21049;-54
2023/04/08 02:31:42;;;;;;;16.40;10.47;;;7.40;1.00;;;;;;5045205;28;21002;-55
2023/04/08 02:34:10;;;;;;;16.13;9.23;;;7.40;1.00;;;;;;5042342;28;20451;-55
2023/04/08 02:36:36;;;;;;;14.97;9.73;;;7.50;1.00;;;;;;5044414;28;20864;-53
2023/04/08 02:39:04;;;;;;;15.97;10.10;;;7.40;1.00;;;;;;5044496;28;20451;-53
2023/04/08 02:41:30;;;;;;;14.47;9.40;;;7.60;1.00;;;;;;5045493;28;20467;-54
2023/04/08 02:43:56;;;;;;;17.20;9.57;;;7.60;1.00;;;;;;5045967;28;20500;-53
2023/04/08 02:46:22;;;;;;;15.90;9.03;;;7.50;1.00;;;;;;5039888;28;20655;-53
2023/04/08 02:48:48;;;;;;;18.27;9.80;;;7.30;1.00;;;;;;5046491;28;20524;-53
2023/04/08 02:51:13;;;;;;;14.47;9.27;;;7.40;1.00;;;;;;5043055;28;20820;-54
2023/04/08 02:53:39;;;;;;;10.83;8.40;;;7.50;1.00;;;;;;5052960;28;20279;-54
2023/04/08 02:56:05;;;;;;;13.50;8.50;;;7.50;1.00;;;;;;5051098;28;20574;-54
2023/04/08 02:58:30;;;;;;;12.80;9.07;;;7.60;1.00;;;;;;5049409;28;20254;-54
2023/04/08 03:00:56;;;;;;;12.57;8.17;;;7.60;1.00;;;;;;5045111;28;20578;-53
2023/04/08 03:03:28;;;;;;;12.40;7.87;;;7.50;1.00;;;;;;5038089;28;20184;-52
2023/04/08 03:05:55;;;;;;;17.03;8.80;;;7.60;1.00;;;;;;5040520;28;20172;-54
2023/04/08 03:08:21;;;;;;;14.20;8.50;;;7.60;1.00;;;;;;5044919;28;20439;-55
2023/04/08 03:10:47;;;;;;;13.87;7.70;;;7.70;1.00;;;;;;5048099;28;20524;-54
2023/04/08 03:13:12;;;;;;;11.37;7.10;;;7.70;1.00;;;;;;5044973;28;20877;-55
2023/04/08 03:15:38;;;;;;;11.73;7.87;;;7.70;1.00;;;;;;5045774;28;20598;-54
2023/04/08 03:18:03;;;;;;;10.70;7.37;;;7.60;1.00;;;;;;5042113;28;20185;-53
2023/04/08 03:20:29;;;;;;;13.00;8.03;;;7.60;1.00;;;;;;5037027;28;20253;-55
2023/04/08 03:22:55;;;;;;;13.77;8.70;;;7.50;1.00;;;;;;5040108;28;20223;-53
2023/04/08 03:25:20;;;;;;;12.27;8.00;;;7.60;1.00;;;;;;5036204;28;21136;-55
2023/04/08 03:27:46;;;;;;;12.60;8.27;;;7.70;1.00;;;;;;5049600;28;20466;-54
2023/04/08 03:30:11;;;;;;;14.90;8.77;;;7.70;1.00;;;;;;5038015;28;20211;-54
2023/04/08 03:32:37;;;;;;;10.33;6.70;;;7.80;1.00;;;;;;5047048;28;20287;-54
2023/04/08 03:35:05;;;;;;;10.70;6.80;;;7.80;1.00;;;;;;5038944;28;20184;-52
2023/04/08 03:37:31;;;;;;;13.13;8.43;;;7.80;1.00;;;;;;5038110;28;20187;-53
2023/04/08 03:39:56;;;;;;;10.90;7.47;;;7.80;1.00;;;;;;5038890;28;20439;-54
2023/04/08 03:42:22;;;;;;;9.27;6.60;;;7.70;1.00;;;;;;5043123;28;20477;-54
2023/04/08 03:44:48;;;;;;;12.77;7.40;;;7.70;1.00;;;;;;5047736;28;20669;-53
2023/04/08 03:47:13;;;;;;;13.53;8.87;;;7.70;1.00;;;;;;5046889;28;20724;-53
2023/04/08 03:49:39;;;;;;;10.07;6.63;;;7.50;1.00;;;;;;5042986;28;20662;-53
2023/04/08 03:52:05;;;;;;;10.30;6.57;;;7.50;1.00;;;;;;5041748;28;20196;-54
2023/04/08 03:54:31;;;;;;;10.33;6.37;;;7.50;1.00;;;;;;5044227;28;20778;-54
2023/04/08 03:56:57;;;;;;;10.47;6.90;;;7.60;1.00;;;;;;5037330;28;20559;-53
2023/04/08 03:59:23;;;;;;;10.97;7.43;;;7.70;1.00;;;;;;5040882;28;20193;-53
2023/04/08 04:01:50;;;;;;;10.83;6.37;;;7.60;1.00;;;;;;5040893;28;20302;-53
2023/04/08 04:04:15;;;;;;;8.30;6.40;;;7.70;1.00;;;;;;5037211;28;20534;-54
2023/04/08 04:06:41;;;;;;;7.87;5.60;;;7.70;1.00;;;;;;5043140;28;20990;-54
2023/04/08 04:09:07;;;;;;;6.97;5.47;;;7.60;1.00;;;;;;5047150;28;20263;-55
2023/04/08 04:11:34;;;;;;;9.90;6.73;;;7.70;1.00;;;;;;5047156;28;20266;-55
2023/04/08 04:14:00;;;;;;;11.70;5.70;;;7.70;1.00;;;;;;5039477;28;20192;-55
2023/04/08 04:16:25;;;;;;;8.50;5.40;;;7.80;1.00;;;;;;5037592;28;20933;-56
2023/04/08 04:18:52;;;;;;;7.00;5.17;;;7.70;1.00;;;;;;5044600;28;20670;-53
2023/04/08 04:21:20;;;;;;;7.50;5.07;;;7.70;1.00;;;;;;5042072;28;20303;-54
2023/04/08 04:23:46;;;;;;;7.67;5.23;;;7.40;1.00;;;;;;5035820;28;20450;-55
2023/04/08 04:26:12;;;;;;;8.63;6.37;;;7.50;1.00;;;;;;5031873;28;20455;-53
2023/04/08 04:28:37;;;;;;;8.40;5.10;;;7.70;1.00;;;;;;5030953;28;20277;-55
2023/04/08 04:31:03;;;;;;;8.40;5.63;;;7.60;1.00;;;;;;5039608;28;20682;-54
2023/04/08 04:33:30;;;;;;;7.50;5.00;;;7.70;1.00;;;;;;5034520;28;20281;-55
2023/04/08 04:35:55;;;;;;;11.03;5.77;;;7.70;1.00;;;;;;5033334;28;20451;-54
2023/04/08 04:38:21;;;;;;;10.30;6.50;;;7.80;1.00;;;;;;5030470;28;20478;-53
2023/04/08 04:40:47;;;;;;;12.20;6.57;;;7.70;1.00;;;;;;5035327;28;20270;-54
2023/04/08 04:43:12;;;;;;;8.23;6.23;;;7.60;1.00;;;;;;5041889;28;20189;-53
2023/04/08 04:45:38;;;;;;;9.73;6.70;;;7.60;1.00;;;;;;5054752;28;20266;-53
2023/04/08 04:48:04;;;;;;;9.47;6.80;;;7.60;12.00;;;;;;5049766;28;20195;-54
2023/04/08 04:50:29;;;;;;;13.40;7.03;;;7.50;56.90;;;;;;5046276;28;20668;-54
2023/04/08 04:52:55;;;;;;;9.43;6.53;;;7.60;99.90;;;;;;5044743;28;20197;-53
2023/04/08 04:55:23;;;;;;;12.30;7.63;;;7.80;99.90;;;;;;5044163;28;20232;-54
2023/04/08 04:57:49;;;;;;;9.90;6.43;;;7.70;90.90;;;;;;5048737;28;20657;-53
2023/04/08 05:00:15;;;;;;;13.20;6.67;;;7.80;89.80;;;;;;5045476;28;20458;-54
2023/04/08 05:02:41;;;;;;;11.53;6.83;;;7.70;99.90;;;;;;5049724;28;20272;-54
2023/04/08 05:05:07;;;;;;;9.60;6.60;;;7.90;99.90;;;;;;5047794;28;20454;-54
2023/04/08 05:07:37;;;;;;;11.97;6.60;;;7.90;99.90;;;;;;5046725;28;20295;-53
2023/04/08 05:10:03;;;;;;;7.97;6.07;;;8.00;99.90;;;;;;5049702;28;20525;-53
2023/04/08 05:12:29;;;;;;;9.87;5.83;;;8.10;99.90;;;;;;5049349;28;20846;-56
2023/04/08 05:14:58;;;;;;;11.20;7.00;;;8.00;99.40;;;;;;5046064;28;20501;-53
2023/04/08 05:17:24;;;;;;;8.17;5.90;;;7.90;81.10;;;;;;5045826;28;20192;-56
2023/04/08 05:19:50;;;;;;;8.33;5.83;;;7.90;85.90;;;;;;5048173;28;20520;-56
2023/04/08 05:22:16;;;;;;;8.50;5.57;;;8.00;90.90;;;;;;5043288;28;20467;-56
2023/04/08 05:24:42;;;;;;;9.83;6.40;;;8.10;75.60;;;;;;5047887;28;20447;-54
2023/04/08 05:27:07;;;;;;;7.57;5.63;;;8.10;52.60;;;;;;5044661;28;20185;-53
2023/04/08 05:29:33;;;;;;;11.23;6.63;;;8.20;48.60;;;;;;5047691;28;20230;-55
2023/04/08 05:31:58;;;;;;;7.80;5.63;;;8.20;14.90;;;;;;5044041;28;20201;-55
2023/04/08 05:34:24;;;;;;;7.20;5.17;;;8.20;8.00;;;;;;5048138;28;20188;-53
2023/04/08 05:36:50;;;;;;;7.20;5.00;;;8.30;1.00;;;;;;5041596;28;20200;-53
2023/04/08 05:39:19;;;;;;;8.67;6.20;;;8.30;1.00;;;;;;5051712;28;20924;-54
2023/04/08 05:41:45;;;;;;;8.20;5.90;;;8.40;1.00;;;;;;5046054;28;20969;-52
2023/04/08 05:44:13;;;;;;;11.60;6.77;;;8.40;1.00;;;;;;5048863;28;20458;-54
2023/04/08 05:46:38;;;;;;;7.33;5.57;;;8.30;1.00;;;;;;5045884;28;20593;-55
2023/04/08 05:49:04;;;;;;;11.03;6.10;;;8.30;1.00;;;;;;5048669;28;20451;-53
2023/04/08 05:51:30;;;;;;;9.37;6.60;;;8.30;1.00;;;;;;5049547;28;20234;-53
2023/04/08 05:53:55;;;;;;;11.03;7.07;;;8.50;1.00;;;;;;5050244;28;20224;-53
2023/04/08 05:56:21;;;;;;;9.17;7.20;;;8.60;1.00;;;;;;5050889;28;20450;-55
2023/04/08 05:58:47;;;;;;;10.03;6.40;;;8.70;1.00;;;;;;5051292;28;20180;-54
2023/04/08 06:01:12;;;;;;;8.87;6.53;;;8.80;1.00;;;;;;5048239;28;20800;-53
2023/04/08 06:03:38;;;;;;;10.77;7.47;;;8.90;1.00;;;;;;5050820;28;20180;-54
2023/04/08 06:06:10;;;;;;;12.30;7.93;;;9.00;1.00;;;;;;5045614;28;20204;-53
2023/04/08 06:08:36;;;;;;;9.80;7.07;;;9.00;1.00;;;;;;5058639;28;20184;-53
2023/04/08 06:11:04;;;;;;;9.97;7.20;;;9.10;1.00;;;;;;5048060;28;20472;-52
2023/04/08 06:13:29;;;;;;;13.13;7.17;;;9.10;1.00;;;;;;5050282;28;20180;-53
2023/04/08 06:15:55;;;;;;;10.50;7.03;;;8.90;1.00;;;;;;5047679;28;20504;-52
2023/04/08 06:18:21;;;;;;;13.30;8.20;;;8.80;1.00;;;;;;5049531;28;20485;-53
2023/04/08 06:20:46;;;;;;;8.53;6.77;;;8.80;1.00;;;;;;5047934;28;20308;-54
2023/04/08 06:23:12;;;;;;;11.30;7.33;;;8.90;1.00;;;;;;5046862;28;20188;-54
2023/04/08 06:25:38;;;;;;;8.63;6.57;;;9.10;1.00;;;;;;5047715;28;20442;-55
2023/04/08 06:28:04;;;;;;;10.13;7.20;;;9.00;1.00;;;;;;5054454;28;20308;-55
2023/04/08 06:30:29;;;;;;;10.40;7.80;;;9.10;1.00;;;;;;5044181;28;20675;-53
2023/04/08 06:32:55;;;;;;;9.70;7.50;;;9.10;1.00;;;;;;5049017;28;20279;-54
2023/04/08 06:35:21;;;;;;;10.57;7.83;;;9.10;1.00;;;;;;5044627;28;20735;-55
2023/04/08 06:37:46;;;;;;;16.00;11.10;;;9.00;1.00;;;;;;5047425;28;20192;-54
2023/04/08 06:40:12;;;;;;;17.60;11.03;;;9.00;1.00;;;;;;5045594;28;20196;-54
2023/04/08 06:42:39;;;;;;;19.23;11.23;;;8.90;1.00;;;;;;5051875;28;20279;-55
2023/04/08 06:45:06;;;;;;;16.57;11.47;;;8.80;1.00;;;;;;5044360;28;20196;-54
2023/04/08 06:47:32;;;;;;;15.70;10.67;;;8.70;1.00;;;;;;5043293;28;20470;-54
2023/04/08 06:49:58;;;;;;;17.40;11.67;;;8.70;1.00;;;;;;5054878;28;20544;-54
2023/04/08 06:52:24;;;;;;;15.33;10.90;;;8.80;1.00;;;;;;5058580;28;20200;-53
2023/04/08 06:54:49;;;;;;;17.87;12.10;;;8.90;1.00;;;;;;5046383;28;20478;-57
2023/04/08 06:57:15;;;;;;;16.97;12.03;;;9.00;1.00;;;;;;5041270;28;20279;-54
2023/04/08 06:59:40;;;;;;;17.17;12.57;;;8.90;1.00;;;;;;5047068;28;20199;-54
2023/04/08 07:02:06;;;;;;;18.80;13.57;;;9.00;1.00;;;;;;5044437;28;20208;-56
2023/04/08 07:04:33;;;;;;;17.10;12.70;;;8.90;1.00;;;;;;5048347;28;20200;-53
2023/04/08 07:06:58;;;;;;;18.20;12.63;;;8.90;1.00;;;;;;5046307;28;20785;-52
2023/04/08 07:09:24;;;;;;;18.67;11.67;;;8.80;1.00;;;;;;5046272;28;20189;-56
2023/04/08 07:11:50;;;;;;;20.70;13.93;;;8.80;1.00;;;;;;5046056;28;20283;-54
2023/04/08 07:14:15;;;;;;;19.33;13.60;;;8.80;1.00;;;;;;5043298;28;20188;-55
2023/04/08 07:16:41;;;;;;;17.50;11.63;;;8.90;1.00;;;;;;5042494;28;20207;-57
2023/04/08 07:19:06;;;;;;;14.87;11.33;;;9.00;1.00;;;;;;5045673;28;20238;-54
2023/04/08 07:21:32;;;;;;;14.57;11.77;;;9.10;1.00;;;;;;5047541;28;20208;-52
2023/04/08 07:23:58;;;;;;;15.83;10.87;;;9.20;1.00;;;;;;5044433;28;20188;-54
2023/04/08 07:26:23;;;;;;;13.60;10.50;;;9.20;1.00;;;;;;5045982;28;20180;-53
2023/04/08 07:28:50;;;;;;;17.17;11.50;;;9.30;1.00;;;;;;5048673;28;20184;-54
2023/04/08 07:31:17;;;;;;;15.70;11.40;;;9.40;1.00;;;;;;5043996;28;20239;-53
2023/04/08 07:33:44;;;;;;;17.50;12.03;;;9.70;1.00;;;;;;5036319;28;20442;-55
2023/04/08 07:36:11;;;;;;;13.50;10.03;;;10.00;1.00;;;;;;5045793;28;20446;-53
2023/04/08 07:38:38;;;;;;;15.63;10.80;;;10.10;1.00;;;;;;5049127;28;20510;-53
2023/04/08 07:41:03;;;;;;;15.43;10.57;;;10.20;1.00;;;;;;5051216;28;20498;-55
2023/04/08 07:43:33;;;;;;;12.90;9.77;;;10.10;1.00;;;;;;5041225;28;20493;-55
2023/04/08 07:46:03;;;;;;;10.53;7.97;;;10.00;1.00;;;;;;5047113;28;20183;-55
2023/04/08 07:48:29;;;;;;;12.10;8.43;;;10.00;1.00;;;;;;5047026;28;20901;-54
2023/04/08 07:50:55;;;;;;;8.10;6.80;;;9.80;1.00;;;;;;5046359;28;20449;-52
2023/04/08 07:53:23;;;;;;;8.93;7.27;;;9.80;1.00;;;;;;5049092;28;20989;-53
2023/04/08 07:55:48;;;;;;;8.73;7.00;;;9.70;1.00;;;;;;5043681;28;20582;-54
2023/04/08 07:58:14;;;;;;;11.30;7.90;;;9.70;1.00;;;;;;5048328;28;20541;-52
2023/04/08 08:00:40;;;;;;;7.40;6.40;;;9.80;1.00;;;;;;5044987;28;20226;-55
2023/04/08 08:03:05;;;;;;;6.90;5.67;;;9.80;1.00;;;;;;5048897;28;20216;-53
2023/04/08 08:05:31;;;;;;;7.77;6.97;;;9.80;1.00;;;;;;5044672;28;20183;-55
2023/04/08 08:07:58;;;;;;;7.50;5.80;;;9.90;1.00;;;;;;5037542;28;20576;-53
2023/04/08 08:10:23;;;;;;;7.93;6.07;;;9.90;1.00;;;;;;5040773;28;20204;-54
2023/04/08 08:12:49;;;;;;;7.13;5.90;;;9.90;1.00;;;;;;5046283;28;20451;-54
2023/04/08 08:15:15;;;;;;;7.20;6.03;;;10.10;1.00;;;;;;5045416;28;20384;-53
2023/04/08 08:17:41;;;;;;;7.73;5.73;;;10.20;1.00;;;;;;5044816;28;20191;-54
2023/04/08 08:20:07;;;;;;;7.27;5.47;;;10.40;1.00;;;;;;5047364;28;20454;-55
2023/04/08 08:22:33;;;;;;;5.60;5.00;;;10.50;1.00;;;;;;5044438;28;20251;-53
2023/04/08 08:24:58;;;;;;;9.27;5.53;;;10.60;1.00;;;;;;5050024;28;20482;-52
2023/04/08 08:27:25;;;;;;;7.60;5.43;;;10.60;1.00;;;;;;5050581;28;21978;-55
2023/04/08 08:29:51;;;;;;;6.10;5.17;;;10.80;1.00;;;;;;5046640;28;20185;-54
2023/04/08 08:32:17;;;;;;;5.13;4.63;;;11.00;1.00;;;;;;5049135;28;20952;-54
2023/04/08 08:34:43;;;;;;;6.03;5.43;;;11.00;1.00;;;;;;5049035;28;20473;-54
2023/04/08 08:37:09;;;;;;;6.00;5.00;;;10.90;1.00;;;;;;5043711;28;20450;-54
2023/04/08 08:39:34;;;;;;;7.23;5.90;;;10.80;1.00;;;;;;5047416;28;20701;-54
2023/04/08 08:42:00;;;;;;;5.97;5.37;;;10.90;1.00;;;;;;5049467;28;20214;-55
2023/04/08 08:44:26;;;;;;;6.70;5.50;;;11.20;1.00;;;;;;5044451;28;20208;-54
2023/04/08 08:46:52;;;;;;;6.10;5.23;;;11.40;1.00;;;;;;5042719;28;20185;-53
2023/04/08 08:49:18;;;;;;;6.20;5.60;;;11.50;1.00;;;;;;5041974;28;20451;-53
2023/04/08 08:51:49;;;;;;;6.80;6.10;;;11.60;1.00;;;;;;5043442;28;20978;-53
2023/04/08 08:54:15;;;;;;;7.30;6.10;;;11.70;1.00;;;;;;5041191;28;20221;-54
2023/04/08 08:56:42;;;;;;;7.57;5.80;;;11.70;1.00;;;;;;5044315;28;20459;-53
2023/04/08 08:59:08;;;;;;;9.30;7.00;;;11.80;1.00;;;;;;5041590;28;20477;-55
2023/04/08 09:01:36;;;;;;;10.93;9.00;;;11.70;1.00;;;;;;5042909;28;20494;-55
2023/04/08 09:04:11;;;;;;;9.17;8.00;;;11.90;1.00;;;;;;5046876;28;20553;-53
2023/04/08 09:06:37;;;;;;;7.90;7.10;;;12.00;1.00;;;;;;5044595;28;20438;-55
2023/04/08 09:09:05;;;;;;;9.50;7.53;;;12.00;1.00;;;;;;5046966;28;20446;-53
2023/04/08 09:11:31;;;;;;;9.80;7.10;;;12.00;1.00;;;;;;5042683;28;20474;-53
2023/04/08 09:13:57;;;;;;;9.00;6.90;;;12.00;1.00;;;;;;5044628;28;20532;-53
2023/04/08 09:16:23;;;;;;;11.23;7.50;;;11.80;1.00;;;;;;5045534;28;20907;-55
2023/04/08 09:18:49;;;;;;;8.70;6.77;;;11.60;1.00;;;;;;5040195;28;20184;-54
2023/04/08 09:21:16;;;;;;;9.07;8.10;;;11.50;1.00;;;;;;5046928;28;20217;-53
2023/04/08 09:23:50;;;;;;;9.50;8.00;;;11.50;1.00;;;;;;5047368;28;20188;-54
2023/04/08 09:26:22;;;;;;;10.97;7.93;;;11.50;1.00;;;;;;5046540;28;21106;-54
2023/04/08 09:29:08;;;;;;;9.70;6.47;;;11.40;1.00;;;;;;5043546;28;20899;-54
2023/04/08 09:31:37;;;;;;;11.03;8.27;;;11.20;1.00;;;;;;5045237;28;20531;-54
2023/04/08 09:34:10;;;;;;;10.33;8.17;;;11.10;1.00;;;;;;5039490;28;20547;-55
2023/04/08 09:36:36;;;;;;;10.30;8.23;;;11.20;1.00;;;;;;5044037;28;20443;-54
2023/04/08 09:39:02;;;;;;;9.67;7.97;;;11.50;1.00;;;;;;5049542;28;20508;-54
2023/04/08 09:41:28;;;;;;;9.60;7.90;;;11.70;1.00;;;;;;5049215;28;20208;-54
2023/04/08 09:43:55;;;;;;;8.73;7.40;;;11.50;1.00;;;;;;5047250;28;20443;-53
2023/04/08 09:46:27;;;;;;;12.37;8.03;;;11.30;1.00;;;;;;5049275;28;21136;-54
2023/04/08 09:49:08;;;;;;;12.50;8.77;;;11.10;1.00;;;;;;5050349;28;20497;-54
2023/04/08 09:51:42;;;;;;;11.50;7.97;;;11.20;1.00;;;;;;5049158;28;20956;-52
2023/04/08 09:54:13;;;;;;;7.77;6.90;;;11.30;1.00;;;;;;5048998;28;20502;-52
2023/04/08 09:56:48;;;;;;;11.50;8.13;;;11.60;1.00;;;;;;5043524;28;22161;-52
2023/04/08 09:59:17;;;;;;;11.73;8.43;;;11.80;1.00;;;;;;5044137;28;20963;-53
2023/04/08 10:01:51;;;;;;;10.27;8.00;;;12.00;1.00;;;;;;5048319;28;20611;-53
2023/04/08 10:04:20;;;;;;;12.97;8.83;;;12.00;1.00;;;;;;5050296;28;20908;-53
2023/04/08 10:06:56;;;;;;;11.83;9.17;;;11.90;1.00;;;;;;5046169;28;20527;-53
2023/04/08 10:09:22;;;;;;;11.10;8.70;;;12.00;1.00;;;;;;5046964;28;20454;-55
2023/04/08 10:11:48;;;;;;;11.47;8.70;;;12.10;1.00;;;;;;5046948;28;20451;-55
2023/04/08 10:14:14;;;;;;;10.20;8.30;;;12.00;1.00;;;;;;5049477;28;20525;-53
2023/04/08 10:16:40;;;;;;;12.37;9.60;;;11.90;1.00;;;;;;5051366;28;20541;-54
2023/04/08 10:19:41;;;;;;;11.80;8.40;;;12.00;1.00;;;;;;5046948;28;20200;-54
2023/04/08 10:22:30;;;;;;;11.50;7.60;;;12.00;1.00;;;;;;5049270;28;20210;-55
2023/04/08 10:25:15;;;;;;;10.70;8.00;;;11.80;1.00;;;;;;5047181;28;20474;-55
2023/04/08 10:27:41;;;;;;;10.73;8.20;;;11.60;1.00;;;;;;5049019;28;20447;-54
2023/04/08 10:30:30;;;;;;;8.30;7.40;;;11.50;1.00;;;;;;5044167;28;20446;-53
2023/04/08 10:32:58;;;;;;;9.73;7.63;;;11.40;1.00;;;;;;5045543;28;20439;-53
2023/04/08 10:35:41;;;;;;;11.17;7.90;;;11.40;1.00;;;;;;5048761;28;20451;-54
2023/04/08 10:38:07;;;;;;;11.07;8.13;;;11.40;1.00;;;;;;5053395;28;20446;-53
2023/04/08 10:40:41;;;;;;;12.40;8.13;;;11.50;1.00;;;;;;5066458;28;20426;-54
2023/04/08 10:43:11;;;;;;;9.27;7.73;;;11.60;1.00;;;;;;5047310;28;20447;-53
2023/04/08 10:45:38;;;;;;;11.03;8.40;;;11.80;1.00;;;;;;5048098;28;20434;-55
2023/04/08 10:48:17;;;;;;;8.90;7.43;;;12.00;1.00;;;;;;5040654;28;20546;-53
2023/04/08 10:50:51;;;;;;;7.50;6.70;;;12.10;1.00;;;;;;5048780;28;20437;-55
2023/04/08 10:53:17;;;;;;;8.13;7.33;;;12.20;1.00;;;;;;5047008;28;20478;-53
2023/04/08 10:55:43;;;;;;;8.20;7.17;;;12.20;1.00;;;;;;5043836;28;20510;-55
2023/04/08 10:58:10;;;;;;;8.90;7.10;;;12.30;1.00;;;;;;5048092;28;20335;-55
2023/04/08 11:00:37;;;;;;;9.50;6.53;;;12.30;1.00;;;;;;5046449;28;20196;-55
2023/04/08 11:03:07;;;;;;;8.97;7.97;;;12.30;1.00;;;;;;5047738;28;20501;-55
2023/04/08 11:05:35;;;;;;;11.77;8.63;;;11.90;1.00;;;;;;5049496;28;20542;-54
2023/04/08 11:08:01;;;;;;;12.40;8.50;;;11.70;1.00;;;;;;5049628;28;20863;-54
2023/04/08 11:10:27;;;;;;;10.80;8.23;;;11.70;1.00;;;;;;5045447;28;20439;-53
2023/04/08 11:12:57;;;;;;;10.90;8.27;;;11.70;1.00;;;;;;5043422;28;20443;-54
2023/04/08 11:15:29;;;;;;;9.00;8.03;;;11.50;1.00;;;;;;5050937;28;20447;-53
2023/04/08 11:17:55;;;;;;;10.83;8.67;;;11.40;1.00;;;;;;5069849;28;20448;-53
2023/04/08 11:20:21;;;;;;;13.67;10.20;;;11.30;1.00;;;;;;5058549;28;20443;-53
2023/04/08 11:22:47;;;;;;;14.67;11.10;;;11.10;1.00;;;;;;5049774;28;21002;-54
2023/04/08 11:25:12;;;;;;;13.10;11.67;;;11.00;1.00;;;;;;5049378;28;20549;-55
2023/04/08 11:27:39;;;;;;;13.27;10.90;;;10.90;1.00;;;;;;5045976;28;20196;-53
2023/04/08 11:30:06;;;;;;;14.03;10.80;;;11.00;1.00;;;;;;5047753;28;20255;-54
2023/04/08 11:32:35;;;;;;;13.83;10.90;;;11.10;1.00;;;;;;5057142;28;20968;-55
2023/04/08 11:35:03;;;;;;;17.50;13.63;;;11.10;1.00;;;;;;5048986;28;20825;-54
2023/04/08 11:37:41;;;;;;;16.10;12.60;;;11.10;1.00;;;;;;5046651;28;20793;-53
2023/04/08 11:40:09;;;;;;;18.40;14.30;;;11.10;1.00;;;;;;5049355;28;20453;-53
2023/04/08 11:42:34;;;;;;;17.80;14.50;;;11.00;1.00;;;;;;5048943;28;20840;-53
2023/04/08 11:45:01;;;;;;;19.57;14.13;;;11.00;1.00;;;;;;5035621;28;20503;-56
2023/04/08 11:47:33;;;;;;;16.50;13.03;;;11.10;1.00;;;;;;5032399;28;20192;-52
2023/04/08 11:50:00;;;;;;;16.87;12.53;;;11.20;1.00;;;;;;5038909;28;20451;-55
2023/04/08 11:52:45;;;;;;;17.57;13.70;;;11.40;1.00;;;;;;5041228;28;20952;-53
2023/04/08 11:55:20;;;;;;;18.03;14.20;;;11.40;1.00;;;;;;5036787;28;20601;-53
2023/04/08 11:57:47;;;;;;;16.97;13.17;;;11.60;1.00;;;;;;5032282;28;20455;-54
2023/04/08 12:00:13;;;;;;;17.03;13.67;;;11.60;1.00;;;;;;5034219;28;20701;-54
2023/04/08 12:02:40;;;;;;;16.60;13.07;;;11.70;1.00;;;;;;5046117;28;20466;-55
2023/04/08 12:05:07;;;;;;;17.67;13.53;;;11.50;1.00;;;;;;5017653;28;20489;-53
2023/04/08 12:07:32;;;;;;;18.27;14.20;;;11.50;1.00;;;;;;5036788;28;20461;-53
2023/04/08 12:09:58;;;;;;;20.03;14.03;;;11.70;1.00;;;;;;5039767;28;20448;-53
2023/04/08 12:12:24;;;;;;;18.83;13.70;;;11.90;1.00;;;;;;5039990;28;20645;-54
2023/04/08 12:14:49;;;;;;;18.37;13.10;;;12.20;1.00;;;;;;5038844;28;20180;-57
2023/04/08 12:17:15;;;;;;;17.90;13.67;;;12.40;1.00;;;;;;5039148;28;20665;-54
2023/04/08 12:19:41;;;;;;;16.53;13.70;;;12.40;1.00;;;;;;5044136;28;20196;-54
2023/04/08 12:22:06;;;;;;;20.53;14.10;;;12.40;1.00;;;;;;5044330;28;20267;-54
2023/04/08 12:24:32;;;;;;;18.67;14.70;;;12.30;1.00;;;;;;5041950;28;20184;-55
2023/04/08 12:26:58;;;;;;;18.00;13.57;;;12.40;1.00;;;;;;5043876;28;20272;-52
2023/04/08 12:29:23;;;;;;;18.90;15.00;;;12.40;1.00;;;;;;5041417;28;20743;-53
2023/04/08 12:31:50;;;;;;;20.80;15.57;;;12.50;1.00;;;;;;5041904;28;20216;-54
2023/04/08 12:34:16;;;;;;;18.70;14.37;;;12.50;1.00;;;;;;5041451;28;20203;-53
2023/04/08 12:36:41;;;;;;;19.80;15.53;;;12.30;1.00;;;;;;5045803;28;20844;-53
2023/04/08 12:39:07;;;;;;;21.43;16.10;;;11.70;1.00;;;;;;5043585;28;20200;-53
2023/04/08 12:41:33;;;;;;;20.60;14.60;;;11.40;1.00;;;;;;5045198;28;20239;-54
2023/04/08 12:43:59;;;;;;;22.97;15.90;;;11.30;1.00;;;;;;5042482;28;20590;-54
2023/04/08 12:46:25;;;;;;;24.93;16.80;;;11.30;1.00;;;;;;5040663;28;20204;-54
2023/04/08 12:48:51;;;;;;;22.70;16.43;;;11.40;1.00;;;;;;5044147;28;20434;-52
2023/04/08 12:51:17;;;;;;;19.20;14.47;;;11.60;1.00;;;;;;5042531;28;20371;-53